createdAt,value
2023-03-26T00:02:06.003Z,1.92
2023-03-26T00:04:34.585Z,3.65
2023-03-26T00:07:03.105Z,2.30
2023-03-26T00:09:31.310Z,2.92
2023-03-26T00:12:00.785Z,3.42
2023-03-26T00:14:30.000Z,2.28
2023-03-26T00:16:58.220Z,0.70
2023-03-26T00:19:27.868Z,0.68
2023-03-26T00:21:57.744Z,1.90
2023-03-26T00:24:29.966Z,4.00
2023-03-26T00:26:58.051Z,1.93
2023-03-26T00:29:28.252Z,2.90
2023-03-26T00:31:56.451Z,5.82
2023-03-26T00:34:25.001Z,3.17
2023-03-26T00:36:54.614Z,3.63
2023-03-26T00:39:25.705Z,3.03
2023-03-26T00:41:54.654Z,8.05
2023-03-26T00:44:23.202Z,8.52
2023-03-26T00:46:52.704Z,6.85
2023-03-26T00:49:20.986Z,4.53
2023-03-26T00:51:49.108Z,12.52
2023-03-26T00:54:17.455Z,6.03
2023-03-26T00:56:45.661Z,7.38
2023-03-26T00:59:13.790Z,10.82
2023-03-26T01:01:42.241Z,9.02
2023-03-26T01:04:28.121Z,11.57
2023-03-26T01:06:57.121Z,14.20
2023-03-26T01:09:33.056Z,12.68
2023-03-26T01:12:02.690Z,8.85
2023-03-26T01:14:31.153Z,17.90
2023-03-26T01:17:00.696Z,30.10
2023-03-26T01:19:38.182Z,19.65
2023-03-26T01:22:06.993Z,23.13
2023-03-26T01:24:36.546Z,18.02
2023-03-26T01:27:19.124Z,24.63
2023-03-26T01:29:54.228Z,27.08
2023-03-26T01:32:30.990Z,37.78
2023-03-26T01:35:12.430Z,21.40
2023-03-26T01:37:47.868Z,28.05
2023-03-26T01:40:23.528Z,27.20
2023-03-26T01:42:57.631Z,25.00
2023-03-26T01:45:29.628Z,40.50
2023-03-26T01:47:58.915Z,24.52
2023-03-26T01:50:27.092Z,30.25
2023-03-26T01:52:55.282Z,40.90
2023-03-26T01:55:26.224Z,30.63
2023-03-26T01:58:00.387Z,25.67
2023-03-26T02:00:31.067Z,35.30
2023-03-26T02:03:18.875Z,52.33
2023-03-26T02:05:53.605Z,37.33
2023-03-26T02:08:25.528Z,44.92
2023-03-26T02:10:58.257Z,33.55
2023-03-26T02:13:27.240Z,37.78
2023-03-26T02:15:59.960Z,38.17
2023-03-26T02:18:36.289Z,34.38
2023-03-26T02:21:07.133Z,52.00
2023-03-26T02:23:36.444Z,31.35
2023-03-26T02:26:07.535Z,40.42
2023-03-26T02:28:35.985Z,41.92
2023-03-26T02:31:04.243Z,31.45
2023-03-26T02:33:33.199Z,38.33
2023-03-26T02:36:02.143Z,36.15
2023-03-26T02:38:33.700Z,34.45
2023-03-26T02:41:02.021Z,36.42
2023-03-26T02:43:31.555Z,37.90
2023-03-26T02:45:59.814Z,42.72
2023-03-26T02:48:27.969Z,35.50
2023-03-26T02:50:56.055Z,42.00
2023-03-26T02:53:29.654Z,48.97
2023-03-26T02:55:58.048Z,38.20
2023-03-26T02:58:26.382Z,45.05
2023-03-26T03:00:56.203Z,36.50
2023-03-26T03:03:24.696Z,41.42
2023-03-26T03:05:53.534Z,41.55
2023-03-26T03:08:22.161Z,43.83
2023-03-26T03:10:58.137Z,36.22
2023-03-26T03:13:26.263Z,48.42
2023-03-26T03:15:56.105Z,48.97
2023-03-26T03:18:24.451Z,33.17
2023-03-26T03:20:53.857Z,41.13
2023-03-26T03:23:22.368Z,41.47
2023-03-26T03:25:52.691Z,36.03
2023-03-26T03:28:21.564Z,43.92
2023-03-26T03:30:53.142Z,39.20
2023-03-26T03:33:22.779Z,44.25
2023-03-26T03:35:51.568Z,42.88
2023-03-26T03:38:19.762Z,44.17
2023-03-26T03:40:48.017Z,38.13
2023-03-26T03:43:16.112Z,47.38
2023-03-26T03:45:45.712Z,47.45
2023-03-26T03:48:14.352Z,38.28
2023-03-26T03:50:43.819Z,49.45
2023-03-26T03:53:16.326Z,45.85
2023-03-26T03:55:52.855Z,62.42
2023-03-26T03:58:22.333Z,46.53
2023-03-26T04:00:50.590Z,39.22
2023-03-26T04:03:19.995Z,49.45
2023-03-26T04:08:35.853Z,30.95
2023-03-26T04:11:04.011Z,48.13
2023-03-26T04:13:32.250Z,43.80
2023-03-26T04:16:00.564Z,34.15
2023-03-26T04:18:30.323Z,39.58
2023-03-26T04:21:02.465Z,49.58
2023-03-26T04:23:32.055Z,47.42
2023-03-26T04:26:04.169Z,39.28
2023-03-26T04:28:35.697Z,41.83
2023-03-26T04:31:05.559Z,39.55
2023-03-26T04:33:35.444Z,40.42
2023-03-26T04:36:04.251Z,48.85
2023-03-26T04:38:38.506Z,42.85
2023-03-26T04:41:07.863Z,42.47
2023-03-26T04:43:36.524Z,36.13
2023-03-26T04:46:04.682Z,45.15
2023-03-26T04:48:32.907Z,35.55
2023-03-26T04:51:01.421Z,45.75
2023-03-26T04:53:29.557Z,43.17
2023-03-26T04:56:02.098Z,36.15
2023-03-26T04:58:34.055Z,41.05
2023-03-26T05:01:10.151Z,63.35
2023-03-26T05:03:41.416Z,57.22
2023-03-26T05:06:12.661Z,49.20
2023-03-26T05:08:41.941Z,48.28
2023-03-26T05:11:12.053Z,50.28
2023-03-26T05:13:42.852Z,47.63
2023-03-26T05:16:12.761Z,54.22
2023-03-26T05:18:40.973Z,53.65
2023-03-26T05:21:09.192Z,36.40
2023-03-26T05:23:37.280Z,40.35
2023-03-26T05:26:07.651Z,41.85
2023-03-26T05:28:37.167Z,44.13
2023-03-26T05:31:05.604Z,37.30
2023-03-26T05:33:33.753Z,43.47
2023-03-26T05:36:02.297Z,45.17
2023-03-26T05:38:31.121Z,37.35
2023-03-26T05:41:00.724Z,35.20
2023-03-26T05:43:28.917Z,32.30
2023-03-26T05:45:58.417Z,35.53
2023-03-26T05:48:27.370Z,29.55
2023-03-26T05:50:57.649Z,33.55
2023-03-26T05:53:27.161Z,37.22
2023-03-26T05:55:58.422Z,28.30
2023-03-26T05:58:26.768Z,26.98
2023-03-26T06:01:02.631Z,31.45
2023-03-26T06:03:30.873Z,36.90
2023-03-26T06:05:59.135Z,25.55
2023-03-26T06:08:27.368Z,27.40
2023-03-26T06:11:00.772Z,33.90
2023-03-26T06:13:29.142Z,32.63
2023-03-26T06:15:58.282Z,35.40
2023-03-26T06:18:28.003Z,31.13
2023-03-26T06:20:56.350Z,28.90
2023-03-26T06:23:24.641Z,24.90
2023-03-26T06:25:52.777Z,30.95
2023-03-26T06:28:20.859Z,32.97
2023-03-26T06:30:49.055Z,28.40
2023-03-26T06:33:17.384Z,25.98
2023-03-26T06:35:47.057Z,33.45
2023-03-26T06:38:15.209Z,23.08
2023-03-26T06:40:43.324Z,21.02
2023-03-26T06:43:11.953Z,28.08
2023-03-26T06:45:40.700Z,40.63
2023-03-26T06:48:09.221Z,35.85
2023-03-26T06:50:37.360Z,27.92
2023-03-26T06:53:06.811Z,27.15
2023-03-26T06:55:34.923Z,29.88
2023-03-26T06:58:03.080Z,28.20
2023-03-26T07:00:31.207Z,29.58
2023-03-26T07:02:59.344Z,33.85
2023-03-26T07:05:27.652Z,31.30
2023-03-26T07:07:55.957Z,32.33
2023-03-26T07:10:25.417Z,32.20
2023-03-26T07:12:54.465Z,26.52
2023-03-26T07:15:22.635Z,38.63
2023-03-26T07:17:50.753Z,23.17
2023-03-26T07:20:19.003Z,35.83
2023-03-26T07:22:47.605Z,20.20
2023-03-26T07:25:17.412Z,44.90
2023-03-26T07:27:53.453Z,28.58
2023-03-26T07:30:26.124Z,41.67
2023-03-26T07:32:57.275Z,31.38
2023-03-26T07:35:29.747Z,22.70
2023-03-26T07:38:07.100Z,26.70
2023-03-26T07:40:50.820Z,33.10
2023-03-26T07:43:29.222Z,36.60
2023-03-26T07:45:57.932Z,31.75
2023-03-26T07:48:28.169Z,23.50
2023-03-26T07:50:57.506Z,25.20
2023-03-26T07:53:26.513Z,25.95
2023-03-26T07:56:00.345Z,20.38
2023-03-26T07:58:56.875Z,28.70
2023-03-26T08:01:30.698Z,26.90
2023-03-26T08:04:23.632Z,25.27
2023-03-26T08:06:57.341Z,27.85
2023-03-26T08:09:30.033Z,31.95
2023-03-26T08:11:59.822Z,30.92
2023-03-26T08:14:44.760Z,23.45
2023-03-26T08:17:16.252Z,22.35
2023-03-26T08:20:02.254Z,23.85
2023-03-26T08:22:34.280Z,26.05
2023-03-26T08:25:19.540Z,27.38
2023-03-26T08:27:56.333Z,29.67
2023-03-26T08:30:27.400Z,29.58
2023-03-26T08:32:58.061Z,24.50
2023-03-26T08:35:28.438Z,20.67
2023-03-26T08:37:56.592Z,25.75
2023-03-26T08:40:45.461Z,15.65
2023-03-26T08:43:38.670Z,20.02
2023-03-26T08:46:31.324Z,25.23
2023-03-26T08:49:31.685Z,27.30
2023-03-26T08:52:33.668Z,19.38
2023-03-26T08:55:38.251Z,21.45
2023-03-26T08:58:53.320Z,24.65
2023-03-26T09:01:45.542Z,23.10
2023-03-26T09:04:37.009Z,26.05
2023-03-26T09:07:43.075Z,18.73
2023-03-26T09:10:52.997Z,17.00
2023-03-26T09:14:02.099Z,25.58
2023-03-26T09:16:55.026Z,22.80
2023-03-26T09:19:55.402Z,13.23
2023-03-26T09:22:58.869Z,19.25
2023-03-26T09:25:43.328Z,20.63
2023-03-26T09:28:50.303Z,34.83
2023-03-26T09:32:05.001Z,19.75
2023-03-26T09:34:45.947Z,16.23
2023-03-26T09:37:19.606Z,24.58
2023-03-26T09:40:01.563Z,15.10
2023-03-26T09:42:38.712Z,13.80
2023-03-26T09:45:36.521Z,27.83
2023-03-26T09:48:23.947Z,18.98
2023-03-26T09:51:06.221Z,23.73
2023-03-26T09:54:02.654Z,23.48
2023-03-26T09:56:40.128Z,19.92
2023-03-26T09:59:39.461Z,16.15
2023-03-26T10:02:46.548Z,19.70
2023-03-26T10:05:28.103Z,26.45
2023-03-26T10:08:24.729Z,18.63
2023-03-26T10:10:55.868Z,16.77
2023-03-26T10:13:31.261Z,17.20
2023-03-26T10:16:07.496Z,19.77
2023-03-26T10:18:44.709Z,24.40
2023-03-26T10:21:23.569Z,18.95
2023-03-26T10:24:06.936Z,16.17
2023-03-26T10:27:10.172Z,21.65
2023-03-26T10:30:13.030Z,17.65
2023-03-26T10:32:48.421Z,18.10
2023-03-26T10:35:25.931Z,14.93
2023-03-26T10:38:03.431Z,13.43
2023-03-26T10:40:36.935Z,19.25
2023-03-26T10:43:20.812Z,16.58
2023-03-26T10:46:04.873Z,12.82
2023-03-26T10:48:46.840Z,16.17
2023-03-26T10:51:36.341Z,16.02
2023-03-26T10:54:09.688Z,14.25
2023-03-26T10:56:42.811Z,10.30
2023-03-26T11:01:45.476Z,9.88
2023-03-26T11:04:22.532Z,11.27
2023-03-26T11:06:56.554Z,12.13
2023-03-26T11:09:31.493Z,10.18
2023-03-26T11:12:25.586Z,9.40
2023-03-26T11:14:59.781Z,4.15
2023-03-26T11:17:39.485Z,7.90
2023-03-26T11:20:12.265Z,4.60
2023-03-26T11:22:49.757Z,2.13
2023-03-26T11:25:28.150Z,1.85
2023-03-26T11:28:09.427Z,2.65
2023-03-26T11:30:43.020Z,2.42
2023-03-26T11:33:13.869Z,2.58
2023-03-26T11:35:44.464Z,2.42
2023-03-26T11:38:18.315Z,1.20
2023-03-26T11:40:51.139Z,0.85
2023-03-26T11:43:26.413Z,1.85
2023-03-26T11:45:54.917Z,0.75
2023-03-26T11:48:27.970Z,2.15
2023-03-26T11:53:29.112Z,2.08
2023-03-26T11:56:01.286Z,7.72
2023-03-26T11:58:34.508Z,2.43
2023-03-26T12:01:05.719Z,6.28
2023-03-26T12:03:34.215Z,4.43
2023-03-26T12:06:02.917Z,1.52
2023-03-26T12:08:35.784Z,1.58
2023-03-26T12:11:10.448Z,11.50
2023-03-26T12:13:45.662Z,98.25
2023-03-26T12:16:16.402Z,5.47
2023-03-26T12:18:45.905Z,2.10
2023-03-26T12:21:15.207Z,6.50
2023-03-26T12:23:56.266Z,13.70
2023-03-26T12:26:42.176Z,3.60
2023-03-26T12:29:13.716Z,1.95
2023-03-26T12:31:54.483Z,6.85
2023-03-26T12:34:24.292Z,8.63
2023-03-26T12:36:54.500Z,9.38
2023-03-26T12:40:07.602Z,3.35
2023-03-26T12:44:47.167Z,2.35
2023-03-26T12:47:58.515Z,3.63
2023-03-26T12:50:36.952Z,3.92
2023-03-26T12:53:19.221Z,4.15
2023-03-26T12:55:54.176Z,4.88
2023-03-26T12:58:38.514Z,1.55
2023-03-26T13:01:15.949Z,4.50
2023-03-26T13:04:07.124Z,2.45
2023-03-26T13:06:59.716Z,2.33
2023-03-26T13:09:47.776Z,2.30
2023-03-26T13:12:25.776Z,1.52
2023-03-26T13:15:07.958Z,1.67
2023-03-26T13:17:42.720Z,2.95
2023-03-26T13:20:15.744Z,0.80
2023-03-26T13:22:51.045Z,1.00
2023-03-26T13:25:28.611Z,3.95
2023-03-26T13:28:02.968Z,1.27
2023-03-26T13:30:35.469Z,1.95
2023-03-26T13:33:19.644Z,0.60
2023-03-26T13:36:00.664Z,0.40
2023-03-26T13:38:43.860Z,0.85
2023-03-26T13:41:36.508Z,1.00
2023-03-26T13:44:09.643Z,1.50
2023-03-26T13:49:13.036Z,1.35
2023-03-26T13:51:43.498Z,3.92
2023-03-26T13:54:18.102Z,0.70
2023-03-26T13:56:49.331Z,0.43
2023-03-26T13:59:21.843Z,0.57
2023-03-26T14:01:54.693Z,1.80
2023-03-26T14:04:26.957Z,1.15
2023-03-26T14:06:59.944Z,2.43
2023-03-26T14:09:31.741Z,0.85
2023-03-26T14:12:21.577Z,2.17
2023-03-26T14:14:53.010Z,1.35
2023-03-26T14:17:25.145Z,3.08
2023-03-26T14:20:21.221Z,0.47
2023-03-26T14:23:03.242Z,0.98
2023-03-26T14:25:44.056Z,0.90
2023-03-26T14:28:21.187Z,1.27
2023-03-26T14:31:09.637Z,1.08
2023-03-26T14:34:02.297Z,0.47
2023-03-26T14:36:45.617Z,1.25
2023-03-26T14:41:53.295Z,0.35
2023-03-26T14:45:06.165Z,0.45
2023-03-26T14:47:39.444Z,4.40
2023-03-26T14:50:35.918Z,0.43
2023-03-26T14:53:11.831Z,0.30
2023-03-26T14:56:10.227Z,0.38
2023-03-26T14:59:16.212Z,0.40
2023-03-26T15:02:11.683Z,1.17
2023-03-26T15:05:10.441Z,0.20
2023-03-26T15:08:17.335Z,0.38
2023-03-26T15:11:11.985Z,0.40
2023-03-26T15:14:04.784Z,0.40
2023-03-26T15:17:10.707Z,0.55
2023-03-26T15:20:10.619Z,0.40
2023-03-26T15:23:05.293Z,0.50
2023-03-26T15:25:52.928Z,0.40
2023-03-26T15:28:51.377Z,2.80
2023-03-26T15:31:47.444Z,0.30
2023-03-26T15:34:49.581Z,6.93
2023-03-26T15:37:50.263Z,1.33
2023-03-26T15:40:47.394Z,1.48
2023-03-26T15:43:19.996Z,1.38
2023-03-26T15:45:53.831Z,0.75
2023-03-26T15:48:53.013Z,0.90
2023-03-26T15:51:47.348Z,1.15
2023-03-26T15:54:24.227Z,1.58
2023-03-26T15:57:02.298Z,1.50
2023-03-26T15:59:39.458Z,1.02
2023-03-26T16:02:16.315Z,1.30
2023-03-26T16:04:50.620Z,0.47
2023-03-26T16:07:39.054Z,1.15
2023-03-26T16:10:22.976Z,3.35
2023-03-26T16:13:14.797Z,1.25
2023-03-26T16:15:44.927Z,2.15
2023-03-26T16:18:34.490Z,3.75
2023-03-26T16:21:39.809Z,4.07
2023-03-26T16:24:30.422Z,4.45
2023-03-26T16:27:10.583Z,3.08
2023-03-26T16:30:27.522Z,3.25
2023-03-26T16:32:59.675Z,2.20
2023-03-26T16:36:08.655Z,3.67
2023-03-26T16:38:56.178Z,1.58
2023-03-26T16:41:26.656Z,1.40
2023-03-26T16:44:10.702Z,1.15
2023-03-26T16:46:45.447Z,6.00
2023-03-26T16:49:32.083Z,3.00
2023-03-26T16:52:07.551Z,1.17
2023-03-26T16:54:46.034Z,2.20
2023-03-26T16:57:24.842Z,1.50
2023-03-26T17:00:43.976Z,1.67
2023-03-26T17:03:29.135Z,1.52
2023-03-26T17:06:12.660Z,0.63
2023-03-26T17:08:48.045Z,0.77
2023-03-26T17:11:27.813Z,0.70
2023-03-26T17:14:05.667Z,1.02
2023-03-26T17:16:35.977Z,2.92
2023-03-26T17:19:10.928Z,3.70
2023-03-26T17:21:49.265Z,2.97
2023-03-26T17:24:26.853Z,1.25
2023-03-26T17:27:00.043Z,2.90
2023-03-26T17:29:35.311Z,5.95
2023-03-26T17:32:08.740Z,8.43
2023-03-26T17:35:02.143Z,22.63
2023-03-26T17:37:48.193Z,23.40
2023-03-26T17:40:32.251Z,25.52
2023-03-26T17:43:06.295Z,34.63
2023-03-26T17:45:36.671Z,41.17
2023-03-26T17:48:10.060Z,43.03
2023-03-26T17:50:44.249Z,34.45
2023-03-26T17:53:20.212Z,28.27
2023-03-26T17:55:50.803Z,28.02
2023-03-26T17:58:25.353Z,29.65
2023-03-26T18:00:59.659Z,26.40
2023-03-26T18:03:34.069Z,26.90
2023-03-26T18:06:08.000Z,29.05
2023-03-26T18:08:50.861Z,32.75
2023-03-26T18:11:39.805Z,37.17
2023-03-26T18:14:51.378Z,30.40
2023-03-26T18:17:19.570Z,25.00
2023-03-26T18:19:49.311Z,30.08
2023-03-26T18:22:21.801Z,26.25
2023-03-26T18:24:51.896Z,27.33
2023-03-26T18:27:22.671Z,26.92
2023-03-26T18:30:02.706Z,37.70
2023-03-26T18:32:33.683Z,26.33
2023-03-26T18:35:04.482Z,35.88
2023-03-26T18:37:34.507Z,30.27
2023-03-26T18:40:12.500Z,23.13
2023-03-26T18:42:42.012Z,29.92
2023-03-26T18:45:22.258Z,39.25
2023-03-26T18:47:51.737Z,28.45
2023-03-26T18:50:23.773Z,40.15
2023-03-26T18:52:52.232Z,40.58
2023-03-26T18:55:21.934Z,42.22
2023-03-26T18:57:51.690Z,43.03
2023-03-26T19:00:23.314Z,39.08
2023-03-26T19:02:57.263Z,22.08
2023-03-26T19:05:26.604Z,32.05
2023-03-26T19:07:55.006Z,28.85
2023-03-26T19:10:25.187Z,29.30
2023-03-26T19:12:57.429Z,36.92
2023-03-26T19:15:27.316Z,27.58
2023-03-26T19:17:59.645Z,34.25
2023-03-26T19:20:30.552Z,24.20
2023-03-26T19:22:58.785Z,37.90
2023-03-26T19:25:30.234Z,32.13
2023-03-26T19:27:58.449Z,16.30
2023-03-26T19:30:31.734Z,28.33
2023-03-26T19:33:13.017Z,17.70
2023-03-26T19:35:43.660Z,32.75
2023-03-26T19:38:23.256Z,24.55
2023-03-26T19:40:53.517Z,17.67
2023-03-26T19:43:21.993Z,22.17
2023-03-26T19:46:00.294Z,27.02
2023-03-26T19:48:46.150Z,22.17
2023-03-26T19:51:21.536Z,23.02
2023-03-26T19:53:54.118Z,12.85
2023-03-26T19:56:23.812Z,24.35
2023-03-26T19:58:52.886Z,21.95
2023-03-26T20:01:22.308Z,29.40
2023-03-26T20:03:52.745Z,23.83
2023-03-26T20:06:30.798Z,21.83
2023-03-26T20:09:04.150Z,22.63
2023-03-26T20:11:36.700Z,22.40
2023-03-26T20:14:12.160Z,20.80
2023-03-26T20:16:42.810Z,19.45
2023-03-26T20:19:14.195Z,13.30
2023-03-26T20:21:43.229Z,20.30
2023-03-26T20:24:14.738Z,19.13
2023-03-26T20:26:44.751Z,31.52
2023-03-26T20:29:14.096Z,24.13
2023-03-26T20:31:42.647Z,24.52
2023-03-26T20:34:17.210Z,17.40
2023-03-26T20:36:46.246Z,13.63
2023-03-26T20:39:14.874Z,23.02
2023-03-26T20:41:46.516Z,22.73
2023-03-26T20:44:16.722Z,29.08
2023-03-26T20:46:45.349Z,11.95
2023-03-26T20:49:15.054Z,19.42
2023-03-26T20:51:44.585Z,14.30
2023-03-26T20:54:19.275Z,12.20
2023-03-26T20:56:49.600Z,15.27
2023-03-26T20:59:22.305Z,19.63
2023-03-26T21:04:20.724Z,16.30
2023-03-26T21:06:49.156Z,14.50
2023-03-26T21:09:22.541Z,17.35
2023-03-26T21:12:00.522Z,16.27
2023-03-26T21:14:32.982Z,18.55
2023-03-26T21:17:02.379Z,13.40
2023-03-26T21:19:31.237Z,23.33
2023-03-26T21:22:10.662Z,25.38
2023-03-26T21:24:59.745Z,14.15
2023-03-26T21:27:36.112Z,19.13
2023-03-26T21:30:10.534Z,22.73
2023-03-26T21:32:39.246Z,14.90
2023-03-26T21:35:08.759Z,18.92
2023-03-26T21:37:37.622Z,27.45
2023-03-26T21:40:14.314Z,19.27
2023-03-26T21:42:45.169Z,22.60
2023-03-26T21:45:14.060Z,22.33
2023-03-26T21:47:42.810Z,17.05
2023-03-26T21:50:12.971Z,22.58
2023-03-26T21:52:50.858Z,19.05
2023-03-26T21:55:21.160Z,23.63
2023-03-26T21:58:13.766Z,19.90
2023-03-26T22:00:50.567Z,16.37
2023-03-26T22:03:24.055Z,18.63
2023-03-26T22:05:56.500Z,20.42
2023-03-26T22:08:28.823Z,20.45
2023-03-26T22:10:57.221Z,22.23
2023-03-26T22:13:27.300Z,28.70
2023-03-26T22:15:56.965Z,16.67
2023-03-26T22:18:26.115Z,24.02
2023-03-26T22:20:54.554Z,19.42
2023-03-26T22:23:22.965Z,23.45
2023-03-26T22:25:51.497Z,26.88
2023-03-26T22:28:19.794Z,19.77
2023-03-26T22:30:49.280Z,26.88
2023-03-26T22:33:17.956Z,28.70
2023-03-26T22:35:46.993Z,21.63
2023-03-26T22:38:17.047Z,20.65
2023-03-26T22:40:45.139Z,23.27
2023-03-26T22:43:13.266Z,29.27
2023-03-26T22:45:41.617Z,31.75
2023-03-26T22:48:11.183Z,34.63
2023-03-26T22:50:39.305Z,21.08
2023-03-26T22:53:07.431Z,34.90
2023-03-26T22:55:35.522Z,20.13
2023-03-26T22:58:03.643Z,20.92
2023-03-26T23:00:32.373Z,16.40
2023-03-26T23:03:01.377Z,18.58
2023-03-26T23:05:30.964Z,27.83
2023-03-26T23:07:59.327Z,28.77
2023-03-26T23:10:30.044Z,15.15
2023-03-26T23:12:58.198Z,22.58
2023-03-26T23:15:26.893Z,15.27
2023-03-26T23:17:55.353Z,25.17
2023-03-26T23:20:23.758Z,16.33
2023-03-26T23:22:53.313Z,21.30
2023-03-26T23:25:21.760Z,20.95
2023-03-26T23:27:50.737Z,15.48
2023-03-26T23:30:19.254Z,29.73
2023-03-26T23:32:47.560Z,18.60
2023-03-26T23:35:15.825Z,31.58
2023-03-26T23:37:43.899Z,24.05
2023-03-26T23:40:14.302Z,21.52
2023-03-26T23:42:42.659Z,26.83
2023-03-26T23:45:12.419Z,20.08
2023-03-26T23:47:42.192Z,17.50
2023-03-26T23:50:11.821Z,20.17
2023-03-26T23:52:40.068Z,21.17
2023-03-26T23:55:08.769Z,15.63
2023-03-26T23:57:38.235Z,15.32
